sensor_id;sensor_type;location;lat;lon;timestamp;temperature;humidity
7046;DHT22;3564;53.326;10.356;2022-10-26T00:00:04;14.50;99.90
7046;DHT22;3564;53.326;10.356;2022-10-26T00:02:30;14.50;99.90
7046;DHT22;3564;53.326;10.356;2022-10-26T00:04:55;14.50;99.90
7046;DHT22;3564;53.326;10.356;2022-10-26T00:07:21;14.40;99.90
7046;DHT22;3564;53.326;10.356;2022-10-26T00:09:46;14.40;99.90
7046;DHT22;3564;53.326;10.356;2022-10-26T00:12:12;14.40;99.90
7046;DHT22;3564;53.326;10.356;2022-10-26T00:14:37;14.30;99.90
7046;DHT22;3564;53.326;10.356;2022-10-26T00:17:03;14.30;99.90
7046;DHT22;3564;53.326;10.356;2022-10-26T00:19:32;14.30;99.90
7046;DHT22;3564;53.326;10.356;2022-10-26T00:21:58;14.20;99.90
7046;DHT22;3564;53.326;10.356;2022-10-26T00:24:23;14.20;99.90
7046;DHT22;3564;53.326;10.356;2022-10-26T00:26:49;14.20;99.90
7046;DHT22;3564;53.326;10.356;2022-10-26T00:29:14;14.20;99.90
7046;DHT22;3564;53.326;10.356;2022-10-26T00:31:40;14.20;99.90
7046;DHT22;3564;53.326;10.356;2022-10-26T00:34:05;14.20;99.90
7046;DHT22;3564;53.326;10.356;2022-10-26T00:36:31;14.20;99.90
7046;DHT22;3564;53.326;10.356;2022-10-26T00:38:57;14.10;99.90
7046;DHT22;3564;53.326;10.356;2022-10-26T00:41:25;14.10;99.90
7046;DHT22;3564;53.326;10.356;2022-10-26T00:43:52;14.10;99.90
7046;DHT22;3564;53.326;10.356;2022-10-26T00:46:34;14.00;99.90
7046;DHT22;3564;53.326;10.356;2022-10-26T00:49:09;14.10;99.90
7046;DHT22;3564;53.326;10.356;2022-10-26T00:51:43;14.00;99.90
7046;DHT22;3564;53.326;10.356;2022-10-26T00:54:14;14.00;99.90
7046;DHT22;3564;53.326;10.356;2022-10-26T00:56:46;14.00;99.90
7046;DHT22;3564;53.326;10.356;2022-10-26T00:59:14;14.00;99.90
7046;DHT22;3564;53.326;10.356;2022-10-26T01:01:43;13.90;99.90
7046;DHT22;3564;53.326;10.356;2022-10-26T01:04:10;13.90;99.90
7046;DHT22;3564;53.326;10.356;2022-10-26T01:06:37;13.90;99.90
7046;DHT22;3564;53.326;10.356;2022-10-26T01:09:04;13.90;99.90
7046;DHT22;3564;53.326;10.356;2022-10-26T01:11:30;13.80;99.90
7046;DHT22;3564;53.326;10.356;2022-10-26T01:13:57;13.80;99.90
7046;DHT22;3564;53.326;10.356;2022-10-26T01:22:28;13.70;99.90
7046;DHT22;3564;53.326;10.356;2022-10-26T01:30:20;13.70;99.90
7046;DHT22;3564;53.326;10.356;2022-10-26T01:33:18;13.80;99.90
7046;DHT22;3564;53.326;10.356;2022-10-26T01:44:12;13.80;99.90
7046;DHT22;3564;53.326;10.356;2022-10-26T01:46:41;13.80;99.90
7046;DHT22;3564;53.326;10.356;2022-10-26T01:49:10;13.80;99.90
7046;DHT22;3564;53.326;10.356;2022-10-26T01:51:41;13.80;99.90
7046;DHT22;3564;53.326;10.356;2022-10-26T01:54:07;13.80;99.90
7046;DHT22;3564;53.326;10.356;2022-10-26T01:56:39;13.80;99.90
7046;DHT22;3564;53.326;10.356;2022-10-26T02:04:59;13.80;99.90
7046;DHT22;3564;53.326;10.356;2022-10-26T02:13:09;13.80;99.90
7046;DHT22;3564;53.326;10.356;2022-10-26T02:16:04;13.80;99.90
7046;DHT22;3564;53.326;10.356;2022-10-26T02:21:46;13.80;99.90
7046;DHT22;3564;53.326;10.356;2022-10-26T02:24:14;13.70;99.90
7046;DHT22;3564;53.326;10.356;2022-10-26T02:26:44;13.70;99.90
7046;DHT22;3564;53.326;10.356;2022-10-26T02:29:13;13.70;99.90
7046;DHT22;3564;53.326;10.356;2022-10-26T02:31:40;13.70;99.90
7046;DHT22;3564;53.326;10.356;2022-10-26T02:34:11;13.60;99.90
7046;DHT22;3564;53.326;10.356;2022-10-26T02:36:41;13.60;99.90
7046;DHT22;3564;53.326;10.356;2022-10-26T02:39:09;13.60;99.90
7046;DHT22;3564;53.326;10.356;2022-10-26T02:41:36;13.60;99.90
7046;DHT22;3564;53.326;10.356;2022-10-26T02:44:10;13.60;99.90
7046;DHT22;3564;53.326;10.356;2022-10-26T02:46:37;13.60;99.90
7046;DHT22;3564;53.326;10.356;2022-10-26T02:49:10;13.60;99.90
7046;DHT22;3564;53.326;10.356;2022-10-26T02:55:18;13.60;99.90
7046;DHT22;3564;53.326;10.356;2022-10-26T02:57:15;13.60;99.90
7046;DHT22;3564;53.326;10.356;2022-10-26T02:59:45;13.60;99.90
7046;DHT22;3564;53.326;10.356;2022-10-26T03:02:14;13.60;99.90
7046;DHT22;3564;53.326;10.356;2022-10-26T03:04:41;13.50;99.90
7046;DHT22;3564;53.326;10.356;2022-10-26T03:07:06;13.50;99.90
7046;DHT22;3564;53.326;10.356;2022-10-26T03:09:32;13.60;99.90
7046;DHT22;3564;53.326;10.356;2022-10-26T03:12:00;13.50;99.90
7046;DHT22;3564;53.326;10.356;2022-10-26T03:14:26;13.50;99.90
7046;DHT22;3564;53.326;10.356;2022-10-26T03:16:52;13.50;99.90
7046;DHT22;3564;53.326;10.356;2022-10-26T03:19:17;13.50;99.90
7046;DHT22;3564;53.326;10.356;2022-10-26T03:21:43;13.50;99.90
7046;DHT22;3564;53.326;10.356;2022-10-26T03:24:08;13.50;99.90
7046;DHT22;3564;53.326;10.356;2022-10-26T03:26:34;13.50;99.90
7046;DHT22;3564;53.326;10.356;2022-10-26T03:29:00;13.50;99.90
7046;DHT22;3564;53.326;10.356;2022-10-26T03:31:25;13.50;99.90
7046;DHT22;3564;53.326;10.356;2022-10-26T03:33:51;13.50;99.90
7046;DHT22;3564;53.326;10.356;2022-10-26T03:36:16;13.40;99.90
7046;DHT22;3564;53.326;10.356;2022-10-26T03:38:42;13.40;99.90
7046;DHT22;3564;53.326;10.356;2022-10-26T03:41:07;13.40;99.90
7046;DHT22;3564;53.326;10.356;2022-10-26T03:43:36;13.40;99.90
7046;DHT22;3564;53.326;10.356;2022-10-26T03:46:02;13.40;99.90
7046;DHT22;3564;53.326;10.356;2022-10-26T03:48:27;13.30;99.90
7046;DHT22;3564;53.326;10.356;2022-10-26T03:50:56;13.30;99.90
7046;DHT22;3564;53.326;10.356;2022-10-26T03:53:22;13.30;99.90
7046;DHT22;3564;53.326;10.356;2022-10-26T03:55:47;13.20;99.90
7046;DHT22;3564;53.326;10.356;2022-10-26T03:58:16;13.10;99.90
7046;DHT22;3564;53.326;10.356;2022-10-26T04:00:41;13.10;99.90
7046;DHT22;3564;53.326;10.356;2022-10-26T04:03:07;13.10;99.90
7046;DHT22;3564;53.326;10.356;2022-10-26T04:05:32;13.00;99.90
7046;DHT22;3564;53.326;10.356;2022-10-26T04:08:00;13.00;99.90
7046;DHT22;3564;53.326;10.356;2022-10-26T04:10:29;13.00;99.90
7046;DHT22;3564;53.326;10.356;2022-10-26T04:12:58;12.90;99.90
7046;DHT22;3564;53.326;10.356;2022-10-26T04:15:25;12.90;99.90
7046;DHT22;3564;53.326;10.356;2022-10-26T04:17:55;12.90;99.90
7046;DHT22;3564;53.326;10.356;2022-10-26T04:20:21;12.80;99.90
7046;DHT22;3564;53.326;10.356;2022-10-26T04:22:47;12.90;99.90
7046;DHT22;3564;53.326;10.356;2022-10-26T04:25:15;12.80;99.90
7046;DHT22;3564;53.326;10.356;2022-10-26T04:27:41;12.80;99.90
7046;DHT22;3564;53.326;10.356;2022-10-26T04:30:10;12.80;99.90
7046;DHT22;3564;53.326;10.356;2022-10-26T04:32:35;12.80;99.90
7046;DHT22;3564;53.326;10.356;2022-10-26T04:35:01;12.80;99.90
7046;DHT22;3564;53.326;10.356;2022-10-26T04:37:29;12.80;99.90
7046;DHT22;3564;53.326;10.356;2022-10-26T04:39:55;12.80;99.90
7046;DHT22;3564;53.326;10.356;2022-10-26T04:42:20;12.90;99.90
7046;DHT22;3564;53.326;10.356;2022-10-26T04:44:46;12.80;99.90
7046;DHT22;3564;53.326;10.356;2022-10-26T04:47:12;12.90;99.90
7046;DHT22;3564;53.326;10.356;2022-10-26T04:49:40;12.90;99.90
7046;DHT22;3564;53.326;10.356;2022-10-26T04:52:06;12.90;99.90
7046;DHT22;3564;53.326;10.356;2022-10-26T04:54:31;12.80;99.90
7046;DHT22;3564;53.326;10.356;2022-10-26T04:56:57;12.90;99.90
7046;DHT22;3564;53.326;10.356;2022-10-26T04:59:25;12.80;99.90
7046;DHT22;3564;53.326;10.356;2022-10-26T05:01:51;12.80;99.90
7046;DHT22;3564;53.326;10.356;2022-10-26T05:04:16;12.80;99.90
7046;DHT22;3564;53.326;10.356;2022-10-26T05:06:42;12.80;99.90
7046;DHT22;3564;53.326;10.356;2022-10-26T05:09:07;12.80;99.90
7046;DHT22;3564;53.326;10.356;2022-10-26T05:11:33;12.80;99.90
7046;DHT22;3564;53.326;10.356;2022-10-26T05:13:58;12.70;99.90
7046;DHT22;3564;53.326;10.356;2022-10-26T05:16:24;12.70;99.90
7046;DHT22;3564;53.326;10.356;2022-10-26T05:18:50;12.70;99.90
7046;DHT22;3564;53.326;10.356;2022-10-26T05:21:16;12.70;99.90
7046;DHT22;3564;53.326;10.356;2022-10-26T05:23:51;12.70;99.90
7046;DHT22;3564;53.326;10.356;2022-10-26T05:26:18;12.60;99.90
7046;DHT22;3564;53.326;10.356;2022-10-26T05:28:44;12.60;99.90
7046;DHT22;3564;53.326;10.356;2022-10-26T05:31:10;12.60;99.90
7046;DHT22;3564;53.326;10.356;2022-10-26T05:33:36;12.60;99.90
7046;DHT22;3564;53.326;10.356;2022-10-26T05:36:01;12.60;99.90
7046;DHT22;3564;53.326;10.356;2022-10-26T05:38:27;12.60;99.90
7046;DHT22;3564;53.326;10.356;2022-10-26T05:40:53;12.60;99.90
7046;DHT22;3564;53.326;10.356;2022-10-26T05:43:20;12.60;99.90
7046;DHT22;3564;53.326;10.356;2022-10-26T05:45:46;12.60;99.90
7046;DHT22;3564;53.326;10.356;2022-10-26T05:48:13;12.60;99.90
7046;DHT22;3564;53.326;10.356;2022-10-26T05:50:39;12.60;99.90
7046;DHT22;3564;53.326;10.356;2022-10-26T05:53:05;12.60;99.90
7046;DHT22;3564;53.326;10.356;2022-10-26T05:55:31;12.70;99.90
7046;DHT22;3564;53.326;10.356;2022-10-26T05:57:57;12.60;99.90
7046;DHT22;3564;53.326;10.356;2022-10-26T06:00:26;12.60;99.90
7046;DHT22;3564;53.326;10.356;2022-10-26T06:05:55;12.60;99.90
7046;DHT22;3564;53.326;10.356;2022-10-26T06:08:22;12.60;99.90
7046;DHT22;3564;53.326;10.356;2022-10-26T06:10:51;12.60;99.90
7046;DHT22;3564;53.326;10.356;2022-10-26T06:13:19;12.60;99.90
7046;DHT22;3564;53.326;10.356;2022-10-26T06:23:46;12.50;99.90
7046;DHT22;3564;53.326;10.356;2022-10-26T06:26:58;12.40;99.90
7046;DHT22;3564;53.326;10.356;2022-10-26T06:32:00;12.30;99.90
7046;DHT22;3564;53.326;10.356;2022-10-26T06:34:34;12.30;99.90
7046;DHT22;3564;53.326;10.356;2022-10-26T06:37:01;12.30;99.90
7046;DHT22;3564;53.326;10.356;2022-10-26T06:39:30;12.30;99.90
7046;DHT22;3564;53.326;10.356;2022-10-26T06:41:57;12.30;99.90
7046;DHT22;3564;53.326;10.356;2022-10-26T06:44:23;12.30;99.90
7046;DHT22;3564;53.326;10.356;2022-10-26T06:46:56;12.30;99.90
7046;DHT22;3564;53.326;10.356;2022-10-26T06:49:37;12.20;99.90
7046;DHT22;3564;53.326;10.356;2022-10-26T06:55:39;12.20;99.90
7046;DHT22;3564;53.326;10.356;2022-10-26T06:58:12;12.20;99.90
7046;DHT22;3564;53.326;10.356;2022-10-26T07:00:40;12.20;99.90
7046;DHT22;3564;53.326;10.356;2022-10-26T07:03:05;12.20;99.90
7046;DHT22;3564;53.326;10.356;2022-10-26T07:05:32;12.20;99.90
7046;DHT22;3564;53.326;10.356;2022-10-26T07:07:58;12.20;99.90
7046;DHT22;3564;53.326;10.356;2022-10-26T07:10:25;12.20;99.90
7046;DHT22;3564;53.326;10.356;2022-10-26T07:12:51;12.20;99.90
7046;DHT22;3564;53.326;10.356;2022-10-26T07:15:16;12.30;99.90
7046;DHT22;3564;53.326;10.356;2022-10-26T07:17:45;12.20;99.90
7046;DHT22;3564;53.326;10.356;2022-10-26T07:20:13;12.30;99.90
7046;DHT22;3564;53.326;10.356;2022-10-26T07:22:39;12.30;99.90
7046;DHT22;3564;53.326;10.356;2022-10-26T07:25:06;12.30;99.90
7046;DHT22;3564;53.326;10.356;2022-10-26T07:27:32;12.30;99.90
7046;DHT22;3564;53.326;10.356;2022-10-26T07:29:58;12.40;99.90
7046;DHT22;3564;53.326;10.356;2022-10-26T07:32:23;12.40;99.90
7046;DHT22;3564;53.326;10.356;2022-10-26T07:34:49;12.40;99.90
7046;DHT22;3564;53.326;10.356;2022-10-26T07:37:14;12.40;99.90
7046;DHT22;3564;53.326;10.356;2022-10-26T07:39:40;12.40;99.90
7046;DHT22;3564;53.326;10.356;2022-10-26T07:42:05;12.40;99.90
7046;DHT22;3564;53.326;10.356;2022-10-26T07:44:31;12.40;99.90
7046;DHT22;3564;53.326;10.356;2022-10-26T07:46:56;12.40;99.90
7046;DHT22;3564;53.326;10.356;2022-10-26T07:49:22;12.40;99.90
7046;DHT22;3564;53.326;10.356;2022-10-26T07:51:48;12.40;99.90
7046;DHT22;3564;53.326;10.356;2022-10-26T07:54:14;12.50;99.90
7046;DHT22;3564;53.326;10.356;2022-10-26T07:56:39;12.50;99.90
7046;DHT22;3564;53.326;10.356;2022-10-26T07:59:05;12.50;99.90
7046;DHT22;3564;53.326;10.356;2022-10-26T08:01:30;12.50;99.90
7046;DHT22;3564;53.326;10.356;2022-10-26T08:03:56;12.60;99.90
7046;DHT22;3564;53.326;10.356;2022-10-26T08:06:22;12.60;99.90
7046;DHT22;3564;53.326;10.356;2022-10-26T08:08:48;12.60;99.90
7046;DHT22;3564;53.326;10.356;2022-10-26T08:11:15;12.70;99.90
7046;DHT22;3564;53.326;10.356;2022-10-26T08:13:40;12.70;99.90
7046;DHT22;3564;53.326;10.356;2022-10-26T08:16:06;12.80;99.90
7046;DHT22;3564;53.326;10.356;2022-10-26T08:18:33;12.80;99.90
7046;DHT22;3564;53.326;10.356;2022-10-26T08:21:08;12.90;99.90
7046;DHT22;3564;53.326;10.356;2022-10-26T08:23:34;13.00;99.90
7046;DHT22;3564;53.326;10.356;2022-10-26T08:26:00;13.00;99.90
7046;DHT22;3564;53.326;10.356;2022-10-26T08:28:27;13.10;99.90
7046;DHT22;3564;53.326;10.356;2022-10-26T08:30:53;13.10;99.90
7046;DHT22;3564;53.326;10.356;2022-10-26T08:33:19;13.20;99.90
7046;DHT22;3564;53.326;10.356;2022-10-26T08:35:45;13.20;99.90
7046;DHT22;3564;53.326;10.356;2022-10-26T08:38:11;13.30;99.90
7046;DHT22;3564;53.326;10.356;2022-10-26T08:40:39;13.40;99.90
7046;DHT22;3564;53.326;10.356;2022-10-26T08:43:47;13.40;99.90
7046;DHT22;3564;53.326;10.356;2022-10-26T08:46:26;13.50;99.90
7046;DHT22;3564;53.326;10.356;2022-10-26T08:49:04;13.50;99.90
7046;DHT22;3564;53.326;10.356;2022-10-26T08:51:35;13.50;99.90
7046;DHT22;3564;53.326;10.356;2022-10-26T08:54:21;13.60;99.90
7046;DHT22;3564;53.326;10.356;2022-10-26T08:56:56;13.60;99.90
7046;DHT22;3564;53.326;10.356;2022-10-26T08:59:30;13.70;99.90
7046;DHT22;3564;53.326;10.356;2022-10-26T09:01:57;13.80;99.90
7046;DHT22;3564;53.326;10.356;2022-10-26T09:04:29;13.80;99.90
7046;DHT22;3564;53.326;10.356;2022-10-26T09:07:20;13.90;99.90
7046;DHT22;3564;53.326;10.356;2022-10-26T09:12:40;14.10;99.90
7046;DHT22;3564;53.326;10.356;2022-10-26T09:15:44;14.10;99.90
7046;DHT22;3564;53.326;10.356;2022-10-26T09:20:48;14.30;99.90
7046;DHT22;3564;53.326;10.356;2022-10-26T09:29:04;14.50;99.90
7046;DHT22;3564;53.326;10.356;2022-10-26T09:31:34;14.50;99.90
7046;DHT22;3564;53.326;10.356;2022-10-26T09:34:04;14.60;99.90
7046;DHT22;3564;53.326;10.356;2022-10-26T09:36:32;14.70;99.90
7046;DHT22;3564;53.326;10.356;2022-10-26T09:39:11;14.70;99.90
7046;DHT22;3564;53.326;10.356;2022-10-26T09:41:46;14.80;99.90
7046;DHT22;3564;53.326;10.356;2022-10-26T09:44:36;14.90;99.90
7046;DHT22;3564;53.326;10.356;2022-10-26T09:49:48;15.00;99.90
7046;DHT22;3564;53.326;10.356;2022-10-26T09:52:15;15.10;99.90
7046;DHT22;3564;53.326;10.356;2022-10-26T09:54:41;15.10;99.90
7046;DHT22;3564;53.326;10.356;2022-10-26T09:57:08;15.20;99.90
7046;DHT22;3564;53.326;10.356;2022-10-26T09:59:38;15.20;99.90
7046;DHT22;3564;53.326;10.356;2022-10-26T10:02:33;15.30;99.90
7046;DHT22;3564;53.326;10.356;2022-10-26T10:04:58;15.40;99.90
7046;DHT22;3564;53.326;10.356;2022-10-26T10:07:26;15.40;99.90
7046;DHT22;3564;53.326;10.356;2022-10-26T10:10:14;15.40;99.90
7046;DHT22;3564;53.326;10.356;2022-10-26T10:12:40;15.50;99.90
7046;DHT22;3564;53.326;10.356;2022-10-26T10:15:17;15.60;99.90
7046;DHT22;3564;53.326;10.356;2022-10-26T10:17:50;15.60;99.90
7046;DHT22;3564;53.326;10.356;2022-10-26T10:20:21;15.70;99.90
7046;DHT22;3564;53.326;10.356;2022-10-26T10:22:58;15.80;99.90
7046;DHT22;3564;53.326;10.356;2022-10-26T10:25:34;15.80;99.90
7046;DHT22;3564;53.326;10.356;2022-10-26T10:28:01;15.90;99.90
7046;DHT22;3564;53.326;10.356;2022-10-26T10:30:32;16.00;99.90
7046;DHT22;3564;53.326;10.356;2022-10-26T10:33:10;16.10;99.90
7046;DHT22;3564;53.326;10.356;2022-10-26T10:35:39;16.10;99.90
7046;DHT22;3564;53.326;10.356;2022-10-26T10:38:17;16.20;99.90
7046;DHT22;3564;53.326;10.356;2022-10-26T10:40:56;16.40;99.90
7046;DHT22;3564;53.326;10.356;2022-10-26T10:43:22;16.40;99.90
7046;DHT22;3564;53.326;10.356;2022-10-26T10:45:51;16.50;99.90
7046;DHT22;3564;53.326;10.356;2022-10-26T10:48:22;16.60;99.90
7046;DHT22;3564;53.326;10.356;2022-10-26T10:50:55;16.60;99.90
7046;DHT22;3564;53.326;10.356;2022-10-26T11:07:41;17.00;99.90
7046;DHT22;3564;53.326;10.356;2022-10-26T11:10:14;17.10;99.90
7046;DHT22;3564;53.326;10.356;2022-10-26T11:12:50;17.20;99.90
7046;DHT22;3564;53.326;10.356;2022-10-26T11:15:21;17.20;99.90
7046;DHT22;3564;53.326;10.356;2022-10-26T11:20:20;17.30;99.90
7046;DHT22;3564;53.326;10.356;2022-10-26T11:23:09;17.30;99.90
7046;DHT22;3564;53.326;10.356;2022-10-26T11:26:03;17.40;99.90
7046;DHT22;3564;53.326;10.356;2022-10-26T11:28:39;17.40;99.90
7046;DHT22;3564;53.326;10.356;2022-10-26T11:31:12;17.40;99.90
7046;DHT22;3564;53.326;10.356;2022-10-26T11:33:47;17.50;99.90
7046;DHT22;3564;53.326;10.356;2022-10-26T11:36:19;17.50;99.90
7046;DHT22;3564;53.326;10.356;2022-10-26T11:39:08;17.60;99.90
7046;DHT22;3564;53.326;10.356;2022-10-26T11:41:44;17.70;99.90
7046;DHT22;3564;53.326;10.356;2022-10-26T11:44:36;17.70;99.90
7046;DHT22;3564;53.326;10.356;2022-10-26T11:47:51;17.80;99.90
7046;DHT22;3564;53.326;10.356;2022-10-26T11:50:18;17.80;99.90
7046;DHT22;3564;53.326;10.356;2022-10-26T11:52:53;17.80;99.90
7046;DHT22;3564;53.326;10.356;2022-10-26T11:55:22;17.90;99.90
7046;DHT22;3564;53.326;10.356;2022-10-26T11:57:50;18.00;99.90
7046;DHT22;3564;53.326;10.356;2022-10-26T12:00:19;18.00;99.90
7046;DHT22;3564;53.326;10.356;2022-10-26T12:02:54;18.00;99.90
7046;DHT22;3564;53.326;10.356;2022-10-26T12:05:32;18.10;99.90
7046;DHT22;3564;53.326;10.356;2022-10-26T12:08:02;18.10;99.90
7046;DHT22;3564;53.326;10.356;2022-10-26T12:10:32;18.10;99.90
7046;DHT22;3564;53.326;10.356;2022-10-26T12:18:15;18.20;99.90
7046;DHT22;3564;53.326;10.356;2022-10-26T12:23:10;18.20;99.90
7046;DHT22;3564;53.326;10.356;2022-10-26T12:25:37;18.30;99.90
7046;DHT22;3564;53.326;10.356;2022-10-26T12:28:03;18.30;99.90
7046;DHT22;3564;53.326;10.356;2022-10-26T12:30:32;18.40;99.90
7046;DHT22;3564;53.326;10.356;2022-10-26T12:35:48;18.50;99.90
7046;DHT22;3564;53.326;10.356;2022-10-26T12:54:07;18.80;99.90
7046;DHT22;3564;53.326;10.356;2022-10-26T12:57:13;18.80;99.90
7046;DHT22;3564;53.326;10.356;2022-10-26T12:59:48;18.90;99.90
7046;DHT22;3564;53.326;10.356;2022-10-26T13:02:27;18.90;99.90
7046;DHT22;3564;53.326;10.356;2022-10-26T13:07:45;19.00;99.90
7046;DHT22;3564;53.326;10.356;2022-10-26T13:12:54;19.10;99.90
7046;DHT22;3564;53.326;10.356;2022-10-26T13:15:27;19.20;99.90
7046;DHT22;3564;53.326;10.356;2022-10-26T13:23:30;19.30;99.90
7046;DHT22;3564;53.326;10.356;2022-10-26T13:26:17;19.30;99.90
7046;DHT22;3564;53.326;10.356;2022-10-26T13:28:57;19.30;99.90
7046;DHT22;3564;53.326;10.356;2022-10-26T13:34:14;19.30;99.90
7046;DHT22;3564;53.326;10.356;2022-10-26T13:36:50;19.40;99.90
7046;DHT22;3564;53.326;10.356;2022-10-26T13:39:48;19.30;99.90
7046;DHT22;3564;53.326;10.356;2022-10-26T13:42:19;19.30;99.90
7046;DHT22;3564;53.326;10.356;2022-10-26T13:45:04;19.30;99.90
7046;DHT22;3564;53.326;10.356;2022-10-26T13:47:44;19.30;99.90
7046;DHT22;3564;53.326;10.356;2022-10-26T13:50:19;19.30;99.90
7046;DHT22;3564;53.326;10.356;2022-10-26T13:52:49;19.30;99.90
7046;DHT22;3564;53.326;10.356;2022-10-26T13:56:34;19.30;99.90
7046;DHT22;3564;53.326;10.356;2022-10-26T13:58:43;19.30;99.90
7046;DHT22;3564;53.326;10.356;2022-10-26T14:01:16;19.30;99.90
7046;DHT22;3564;53.326;10.356;2022-10-26T14:03:43;19.30;99.90
7046;DHT22;3564;53.326;10.356;2022-10-26T14:08:44;19.50;99.90
7046;DHT22;3564;53.326;10.356;2022-10-26T14:14:28;20.20;99.90
7046;DHT22;3564;53.326;10.356;2022-10-26T14:16:55;20.50;99.90
7046;DHT22;3564;53.326;10.356;2022-10-26T14:19:41;20.70;99.90
7046;DHT22;3564;53.326;10.356;2022-10-26T14:22:22;20.70;99.90
7046;DHT22;3564;53.326;10.356;2022-10-26T14:24:56;20.70;99.90
7046;DHT22;3564;53.326;10.356;2022-10-26T14:27:26;20.60;99.90
7046;DHT22;3564;53.326;10.356;2022-10-26T14:29:53;20.50;99.90
7046;DHT22;3564;53.326;10.356;2022-10-26T14:34:46;20.40;99.90
7046;DHT22;3564;53.326;10.356;2022-10-26T14:37:17;20.30;99.90
7046;DHT22;3564;53.326;10.356;2022-10-26T14:39:46;20.20;99.90
7046;DHT22;3564;53.326;10.356;2022-10-26T14:42:28;20.20;99.90
7046;DHT22;3564;53.326;10.356;2022-10-26T14:44:55;20.20;99.90
7046;DHT22;3564;53.326;10.356;2022-10-26T14:47:32;20.20;99.90
7046;DHT22;3564;53.326;10.356;2022-10-26T14:50:00;20.20;99.90
7046;DHT22;3564;53.326;10.356;2022-10-26T14:52:49;20.20;99.90
7046;DHT22;3564;53.326;10.356;2022-10-26T14:55:16;20.20;99.90
7046;DHT22;3564;53.326;10.356;2022-10-26T14:57:44;20.20;99.90
7046;DHT22;3564;53.326;10.356;2022-10-26T15:02:40;20.20;99.90
7046;DHT22;3564;53.326;10.356;2022-10-26T15:05:20;20.20;99.90
7046;DHT22;3564;53.326;10.356;2022-10-26T15:07:56;20.20;99.90
7046;DHT22;3564;53.326;10.356;2022-10-26T15:15:49;20.10;99.90
7046;DHT22;3564;53.326;10.356;2022-10-26T15:20:48;19.90;99.90
7046;DHT22;3564;53.326;10.356;2022-10-26T15:23:15;19.90;99.90
7046;DHT22;3564;53.326;10.356;2022-10-26T15:25:48;19.80;99.90
7046;DHT22;3564;53.326;10.356;2022-10-26T15:28:37;19.70;99.90
7046;DHT22;3564;53.326;10.356;2022-10-26T15:31:22;19.70;99.90
7046;DHT22;3564;53.326;10.356;2022-10-26T15:36:23;19.50;99.90
7046;DHT22;3564;53.326;10.356;2022-10-26T15:38:49;19.40;99.90
7046;DHT22;3564;53.326;10.356;2022-10-26T15:43:49;19.30;99.90
7046;DHT22;3564;53.326;10.356;2022-10-26T15:46:16;19.20;99.90
7046;DHT22;3564;53.326;10.356;2022-10-26T15:48:42;19.10;99.90
7046;DHT22;3564;53.326;10.356;2022-10-26T15:51:12;19.00;99.90
7046;DHT22;3564;53.326;10.356;2022-10-26T15:53:38;18.90;99.90
7046;DHT22;3564;53.326;10.356;2022-10-26T15:56:11;18.90;99.90
7046;DHT22;3564;53.326;10.356;2022-10-26T15:58:37;18.70;99.90
7046;DHT22;3564;53.326;10.356;2022-10-26T16:01:06;18.60;99.90
7046;DHT22;3564;53.326;10.356;2022-10-26T16:03:32;18.60;99.90
7046;DHT22;3564;53.326;10.356;2022-10-26T16:06:00;18.50;99.90
7046;DHT22;3564;53.326;10.356;2022-10-26T16:08:29;18.40;99.90
7046;DHT22;3564;53.326;10.356;2022-10-26T16:10:55;18.40;99.90
7046;DHT22;3564;53.326;10.356;2022-10-26T16:13:20;18.30;99.90
7046;DHT22;3564;53.326;10.356;2022-10-26T16:15:46;18.20;99.90
7046;DHT22;3564;53.326;10.356;2022-10-26T16:18:13;18.20;99.90
7046;DHT22;3564;53.326;10.356;2022-10-26T16:20:39;18.10;99.90
7046;DHT22;3564;53.326;10.356;2022-10-26T16:23:04;18.10;99.90
7046;DHT22;3564;53.326;10.356;2022-10-26T16:25:40;18.00;99.90
7046;DHT22;3564;53.326;10.356;2022-10-26T16:28:10;18.00;99.90
7046;DHT22;3564;53.326;10.356;2022-10-26T16:30:36;17.90;99.90
7046;DHT22;3564;53.326;10.356;2022-10-26T16:33:04;17.90;99.90
7046;DHT22;3564;53.326;10.356;2022-10-26T16:35:30;17.80;99.90
7046;DHT22;3564;53.326;10.356;2022-10-26T16:37:55;17.70;99.90
7046;DHT22;3564;53.326;10.356;2022-10-26T16:40:21;17.70;99.90
7046;DHT22;3564;53.326;10.356;2022-10-26T16:42:47;17.60;99.90
7046;DHT22;3564;53.326;10.356;2022-10-26T16:45:13;17.60;99.90
7046;DHT22;3564;53.326;10.356;2022-10-26T16:47:39;17.60;99.90
7046;DHT22;3564;53.326;10.356;2022-10-26T16:50:10;17.50;99.90
7046;DHT22;3564;53.326;10.356;2022-10-26T16:52:36;17.50;99.90
7046;DHT22;3564;53.326;10.356;2022-10-26T16:55:04;17.50;99.90
7046;DHT22;3564;53.326;10.356;2022-10-26T16:57:31;17.40;99.90
7046;DHT22;3564;53.326;10.356;2022-10-26T16:59:56;17.40;99.90
7046;DHT22;3564;53.326;10.356;2022-10-26T17:02:22;17.40;99.90
7046;DHT22;3564;53.326;10.356;2022-10-26T17:04:48;17.40;99.90
7046;DHT22;3564;53.326;10.356;2022-10-26T17:07:14;17.30;99.90
7046;DHT22;3564;53.326;10.356;2022-10-26T17:09:39;17.30;99.90
7046;DHT22;3564;53.326;10.356;2022-10-26T17:12:05;17.30;99.90
7046;DHT22;3564;53.326;10.356;2022-10-26T17:14:31;17.30;99.90
7046;DHT22;3564;53.326;10.356;2022-10-26T17:16:57;17.30;99.90
7046;DHT22;3564;53.326;10.356;2022-10-26T17:19:22;17.20;99.90
7046;DHT22;3564;53.326;10.356;2022-10-26T17:21:48;17.20;99.90
7046;DHT22;3564;53.326;10.356;2022-10-26T17:24:14;17.20;99.90
7046;DHT22;3564;53.326;10.356;2022-10-26T17:26:40;17.10;99.90
7046;DHT22;3564;53.326;10.356;2022-10-26T17:29:06;17.10;99.90
7046;DHT22;3564;53.326;10.356;2022-10-26T17:31:32;17.10;99.90
7046;DHT22;3564;53.326;10.356;2022-10-26T17:33:58;17.10;99.90
7046;DHT22;3564;53.326;10.356;2022-10-26T17:36:24;17.10;99.90
7046;DHT22;3564;53.326;10.356;2022-10-26T17:38:52;17.10;99.90
7046;DHT22;3564;53.326;10.356;2022-10-26T17:41:20;17.10;99.90
7046;DHT22;3564;53.326;10.356;2022-10-26T17:43:49;17.10;99.90
7046;DHT22;3564;53.326;10.356;2022-10-26T17:46:19;17.00;99.90
7046;DHT22;3564;53.326;10.356;2022-10-26T17:48:45;17.00;99.90
7046;DHT22;3564;53.326;10.356;2022-10-26T17:51:14;17.00;99.90
7046;DHT22;3564;53.326;10.356;2022-10-26T17:53:39;17.00;99.90
7046;DHT22;3564;53.326;10.356;2022-10-26T17:56:07;17.00;99.90
7046;DHT22;3564;53.326;10.356;2022-10-26T17:58:34;16.90;99.90
7046;DHT22;3564;53.326;10.356;2022-10-26T18:01:02;17.00;99.90
7046;DHT22;3564;53.326;10.356;2022-10-26T18:03:28;16.90;99.90
7046;DHT22;3564;53.326;10.356;2022-10-26T18:05:53;16.90;99.90
7046;DHT22;3564;53.326;10.356;2022-10-26T18:08:19;16.90;99.90
7046;DHT22;3564;53.326;10.356;2022-10-26T18:10:49;16.90;99.90
7046;DHT22;3564;53.326;10.356;2022-10-26T18:13:15;16.90;99.90
7046;DHT22;3564;53.326;10.356;2022-10-26T18:15:41;16.80;99.90
7046;DHT22;3564;53.326;10.356;2022-10-26T18:18:06;16.80;99.90
7046;DHT22;3564;53.326;10.356;2022-10-26T18:20:32;16.80;99.90
7046;DHT22;3564;53.326;10.356;2022-10-26T18:22:58;16.90;99.90
7046;DHT22;3564;53.326;10.356;2022-10-26T18:25:24;16.90;99.90
7046;DHT22;3564;53.326;10.356;2022-10-26T18:27:50;16.90;99.90
7046;DHT22;3564;53.326;10.356;2022-10-26T18:30:15;16.90;99.90